Terminal Aerodrome Forecast
Issued by NWS

Home | Current Version | Previous Version | Text Only | Print | Product List | Glossary On
Versions: 1 2 3 4 5 6 7 8 9 10 11 12 13
000
FTUS46 KMTR 282342
TAFOAK
TAF
KOAK 282342Z 2900/3006 29012KT P6SM SCT250
     FM290500 28015KT P6SM BKN012
     FM291100 27011KT P6SM OVC012
     FM291600 24008KT P6SM BKN015
     FM291800 26010KT P6SM SCT020 BKN025 BKN050
     FM292000 28012KT P6SM SCT025
     FM292100 28015KT P6SM BKN250
     FM300300 28010KT P6SM SCT250=

USA.gov is the U.S. government's official web portal to all federal, state and local government web resources and services.